createdAt,value
2022-07-31T00:00:15.332Z,101157.66
2022-07-31T00:02:42.053Z,101153.28
2022-07-31T00:05:09.059Z,101153.63
2022-07-31T00:07:35.803Z,101158.03
2022-07-31T00:10:02.782Z,101152.78
2022-07-31T00:12:29.388Z,101156.03
2022-07-31T00:14:56.060Z,101156.59
2022-07-31T00:17:22.868Z,101151.53
2022-07-31T00:19:49.595Z,101150.34
2022-07-31T00:22:16.295Z,101149.28
2022-07-31T00:24:43.911Z,101142.56
2022-07-31T00:27:11.012Z,101140.50
2022-07-31T00:29:38.629Z,101138.03
2022-07-31T00:32:05.874Z,101142.50
2022-07-31T00:34:32.866Z,101128.03
2022-07-31T00:36:59.577Z,101132.09
2022-07-31T00:39:26.676Z,101135.19
2022-07-31T00:41:55.052Z,101138.31
2022-07-31T00:44:21.703Z,101130.16
2022-07-31T00:46:48.452Z,101128.19
2022-07-31T00:49:15.985Z,101124.38
2022-07-31T00:51:42.802Z,101126.59
2022-07-31T00:54:10.531Z,101124.16
2022-07-31T00:56:45.308Z,101120.03
2022-07-31T00:59:12.597Z,101118.16
2022-07-31T01:01:39.219Z,101124.91
2022-07-31T01:04:05.896Z,101115.22
2022-07-31T01:06:33.191Z,101122.81
2022-07-31T01:09:01.511Z,101115.47
2022-07-31T01:11:42.093Z,101117.53
2022-07-31T01:14:10.272Z,101114.81
2022-07-31T01:16:44.839Z,101115.78
2022-07-31T01:19:22.681Z,101120.72
2022-07-31T01:22:33.024Z,101121.31
2022-07-31T01:25:17.392Z,101121.41
2022-07-31T01:27:59.258Z,101120.50
2022-07-31T01:30:33.303Z,101121.72
2022-07-31T01:33:05.947Z,101116.69
2022-07-31T01:35:39.569Z,101114.84
2022-07-31T01:38:14.117Z,101113.84
2022-07-31T01:40:47.229Z,101116.13
2022-07-31T01:43:24.082Z,101116.66
2022-07-31T01:45:57.671Z,101115.56
2022-07-31T01:48:26.690Z,101117.41
2022-07-31T01:50:55.992Z,101120.84
2022-07-31T01:53:25.072Z,101120.22
2022-07-31T01:56:01.769Z,101118.50
2022-07-31T01:58:35.055Z,101115.72
2022-07-31T02:01:03.877Z,101113.91
2022-07-31T02:03:42.987Z,101116.50
2022-07-31T02:06:15.186Z,101112.81
2022-07-31T02:08:45.389Z,101116.66
2022-07-31T02:11:14.161Z,101119.31
2022-07-31T02:13:40.972Z,101121.75
2022-07-31T02:16:08.536Z,101124.19
2022-07-31T02:18:35.514Z,101116.84
2022-07-31T02:21:02.356Z,101115.84
2022-07-31T02:23:29.551Z,101117.22
2022-07-31T02:25:56.959Z,101123.44
2022-07-31T02:28:26.100Z,101113.88
2022-07-31T02:30:53.669Z,101115.38
2022-07-31T02:33:24.188Z,101115.84
2022-07-31T02:35:54.126Z,101111.78
2022-07-31T02:38:23.903Z,101115.53
2022-07-31T02:40:53.297Z,101113.16
2022-07-31T02:43:20.929Z,101107.22
2022-07-31T02:45:48.385Z,101108.06
2022-07-31T02:48:15.649Z,101113.53
2022-07-31T02:50:43.115Z,101109.38
2022-07-31T02:53:09.873Z,101120.28
2022-07-31T02:55:37.150Z,101122.25
2022-07-31T02:58:03.850Z,101133.28
2022-07-31T03:00:30.995Z,101143.66
2022-07-31T03:02:58.287Z,101153.72
2022-07-31T03:05:25.075Z,101151.50
2022-07-31T03:07:51.876Z,101158.56
2022-07-31T03:10:18.852Z,101163.97
2022-07-31T03:12:52.254Z,101160.00
2022-07-31T03:15:21.039Z,101163.00
2022-07-31T03:17:49.193Z,101172.19
2022-07-31T03:20:16.328Z,101177.72
2022-07-31T03:22:44.473Z,101174.75
2022-07-31T03:25:21.504Z,101175.59
2022-07-31T03:27:55.805Z,101169.75
2022-07-31T03:30:25.318Z,101178.00
2022-07-31T03:32:53.103Z,101171.00
2022-07-31T03:35:19.966Z,101174.53
2022-07-31T03:37:46.618Z,101166.06
2022-07-31T03:40:13.815Z,101183.34
2022-07-31T03:42:41.051Z,101170.63
2022-07-31T03:45:09.715Z,101165.63
2022-07-31T03:47:36.931Z,101168.38
2022-07-31T03:50:04.789Z,101164.44
2022-07-31T03:52:31.778Z,101163.75
2022-07-31T03:54:58.734Z,101162.31
2022-07-31T03:57:29.049Z,101153.16
2022-07-31T04:00:01.670Z,101160.44
2022-07-31T04:02:29.151Z,101168.72
2022-07-31T04:04:57.312Z,101163.16
2022-07-31T04:07:24.555Z,101157.03
2022-07-31T04:09:51.298Z,101170.84
2022-07-31T04:12:18.023Z,101168.31
2022-07-31T04:14:44.807Z,101170.25
2022-07-31T04:17:11.525Z,101176.22
2022-07-31T04:19:39.370Z,101178.00
2022-07-31T04:22:06.999Z,101176.19
2022-07-31T04:24:34.354Z,101182.22
2022-07-31T04:27:01.160Z,101187.31
2022-07-31T04:29:29.584Z,101185.59
2022-07-31T04:31:57.150Z,101199.13
2022-07-31T04:34:23.857Z,101182.03
2022-07-31T04:36:50.686Z,101184.63
2022-07-31T04:39:17.450Z,101183.78
2022-07-31T04:41:44.423Z,101180.84
2022-07-31T04:44:11.634Z,101188.22
2022-07-31T04:46:38.613Z,101181.47
2022-07-31T04:49:05.420Z,101175.53
2022-07-31T04:51:32.326Z,101187.06
2022-07-31T04:53:59.161Z,101175.16
2022-07-31T04:56:36.208Z,101181.81
2022-07-31T04:59:14.257Z,101181.50
2022-07-31T05:01:42.113Z,101182.13
2022-07-31T05:04:10.476Z,101181.53
2022-07-31T05:06:42.217Z,101191.38
2022-07-31T05:09:18.387Z,101186.22
2022-07-31T05:11:48.295Z,101185.81
2022-07-31T05:14:16.866Z,101189.53
2022-07-31T05:16:44.518Z,101186.16
2022-07-31T05:19:14.593Z,101192.03
2022-07-31T05:21:51.396Z,101179.28
2022-07-31T05:24:32.693Z,101194.50
2022-07-31T05:27:04.594Z,101195.00
2022-07-31T05:29:32.904Z,101196.75
2022-07-31T05:32:01.186Z,101194.19
2022-07-31T05:34:30.173Z,101191.13
2022-07-31T05:36:57.649Z,101190.97
2022-07-31T05:39:25.358Z,101192.34
2022-07-31T05:41:52.947Z,101189.38
2022-07-31T05:44:19.832Z,101195.25
2022-07-31T05:46:46.690Z,101196.88
2022-07-31T05:49:13.527Z,101194.16
2022-07-31T05:51:43.971Z,101191.56
2022-07-31T05:54:10.837Z,101202.72
2022-07-31T05:56:37.583Z,101198.97
2022-07-31T05:59:04.350Z,101202.22
2022-07-31T06:01:31.101Z,101199.75
2022-07-31T06:03:57.856Z,101198.91
2022-07-31T06:06:24.849Z,101199.81
2022-07-31T06:08:51.595Z,101200.75
2022-07-31T06:11:18.174Z,101197.06
2022-07-31T06:13:44.939Z,101199.03
2022-07-31T06:16:13.850Z,101196.81
2022-07-31T06:18:41.451Z,101198.31
2022-07-31T06:21:08.160Z,101198.91
2022-07-31T06:23:34.993Z,101195.47
2022-07-31T06:26:01.819Z,101206.00
2022-07-31T06:28:45.617Z,101199.13
2022-07-31T06:31:21.898Z,101193.19
2022-07-31T06:33:50.135Z,101207.66
2022-07-31T06:36:18.686Z,101202.97
2022-07-31T06:38:48.591Z,101204.25
2022-07-31T06:41:35.723Z,101200.63
2022-07-31T06:44:02.347Z,101197.75
2022-07-31T06:46:29.032Z,101198.41
2022-07-31T06:48:55.875Z,101198.41
2022-07-31T06:51:31.264Z,101195.34
2022-07-31T06:54:04.373Z,101200.94
2022-07-31T06:56:31.989Z,101190.91
2022-07-31T06:58:58.731Z,101198.47
2022-07-31T07:01:25.546Z,101189.31
2022-07-31T07:03:52.336Z,101201.06
2022-07-31T07:06:19.347Z,101198.47
2022-07-31T07:08:46.188Z,101199.47
2022-07-31T07:11:14.499Z,101215.19
2022-07-31T07:13:45.264Z,101206.84
2022-07-31T07:16:14.483Z,101202.03
2022-07-31T07:18:41.295Z,101211.13
2022-07-31T07:21:08.216Z,101205.28
2022-07-31T07:23:35.753Z,101204.84
2022-07-31T07:26:02.713Z,101204.91
2022-07-31T07:28:31.111Z,101206.91
2022-07-31T07:30:58.064Z,101213.94
2022-07-31T07:33:40.133Z,101210.19
2022-07-31T07:36:08.934Z,101206.63
2022-07-31T07:38:50.416Z,101214.25
2022-07-31T07:41:18.482Z,101208.59
2022-07-31T07:43:45.802Z,101212.03
2022-07-31T07:46:20.185Z,101204.38
2022-07-31T07:48:46.877Z,101202.75
2022-07-31T07:51:13.781Z,101208.25
2022-07-31T07:53:40.639Z,101198.06
2022-07-31T07:56:07.432Z,101205.91
2022-07-31T07:58:34.157Z,101207.59
2022-07-31T08:01:01.761Z,101197.31
2022-07-31T08:03:48.885Z,101191.47
2022-07-31T08:06:15.345Z,101187.63
2022-07-31T08:08:42.115Z,101190.53
2022-07-31T08:11:08.854Z,101184.97
2022-07-31T08:13:35.647Z,101182.41
2022-07-31T08:16:05.555Z,101188.28
2022-07-31T08:18:32.305Z,101180.84
2022-07-31T08:20:59.339Z,101188.69
2022-07-31T08:23:25.921Z,101183.28
2022-07-31T08:25:53.732Z,101180.50
2022-07-31T08:28:25.025Z,101175.69
2022-07-31T08:30:52.816Z,101176.88
2022-07-31T08:33:19.742Z,101180.28
2022-07-31T08:35:50.716Z,101181.41
2022-07-31T08:38:20.759Z,101175.13
2022-07-31T08:40:47.556Z,101181.41
2022-07-31T08:44:00.601Z,101184.81
2022-07-31T08:46:03.011Z,101195.03
2022-07-31T08:48:33.331Z,101188.56
2022-07-31T08:51:03.252Z,101189.41
2022-07-31T08:53:33.165Z,101184.25
2022-07-31T08:56:00.710Z,101187.16
2022-07-31T08:58:27.471Z,101182.97
2022-07-31T09:00:55.138Z,101183.13
2022-07-31T09:03:22.238Z,101184.97
2022-07-31T09:05:49.072Z,101188.25
2022-07-31T09:08:15.976Z,101188.81
2022-07-31T09:10:49.092Z,101184.44
2022-07-31T09:13:18.176Z,101182.16
2022-07-31T09:15:45.152Z,101181.44
2022-07-31T09:18:18.883Z,101188.25
2022-07-31T09:20:58.107Z,101190.56
2022-07-31T09:23:26.939Z,101181.69
2022-07-31T09:26:02.859Z,101181.09
2022-07-31T09:28:43.748Z,101179.13
2022-07-31T09:31:13.882Z,101180.41
2022-07-31T09:33:46.057Z,101172.97
2022-07-31T09:36:13.895Z,101179.97
2022-07-31T09:38:43.099Z,101172.59
2022-07-31T09:41:56.593Z,101164.91
2022-07-31T09:44:10.602Z,101163.94
2022-07-31T09:46:46.276Z,101170.97
2022-07-31T09:49:13.468Z,101171.69
2022-07-31T09:51:45.331Z,101157.88
2022-07-31T09:54:25.454Z,101160.81
2022-07-31T09:56:53.016Z,101156.06
2022-07-31T09:59:20.521Z,101151.41
2022-07-31T10:01:49.099Z,101155.63
2022-07-31T10:04:22.621Z,101149.00
2022-07-31T10:06:51.621Z,101144.84
2022-07-31T10:09:20.676Z,101146.00
2022-07-31T10:11:50.192Z,101153.03
2022-07-31T10:14:28.947Z,101140.09
2022-07-31T10:16:59.172Z,101144.09
2022-07-31T10:19:28.738Z,101139.94
2022-07-31T10:21:59.850Z,101145.50
2022-07-31T10:24:28.884Z,101147.34
2022-07-31T10:27:01.682Z,101131.47
2022-07-31T10:29:32.906Z,101146.78
2022-07-31T10:32:01.026Z,101143.16
2022-07-31T10:34:28.537Z,101137.41
2022-07-31T10:37:02.415Z,101134.63
2022-07-31T10:39:45.610Z,101135.69
2022-07-31T10:42:45.773Z,101133.94
2022-07-31T10:45:14.201Z,101132.28
2022-07-31T10:47:48.847Z,101130.72
2022-07-31T10:50:23.962Z,101128.56
2022-07-31T10:52:51.352Z,101123.75
2022-07-31T10:55:25.141Z,101129.75
2022-07-31T10:57:55.798Z,101129.16
2022-07-31T11:00:29.594Z,101123.47
2022-07-31T11:02:57.471Z,101130.47
2022-07-31T11:05:26.010Z,101116.66
2022-07-31T11:08:04.907Z,101118.53
2022-07-31T11:10:31.966Z,101114.75
2022-07-31T11:13:06.055Z,101110.47
2022-07-31T11:15:37.412Z,101106.91
2022-07-31T11:18:24.861Z,101103.31
2022-07-31T11:21:22.368Z,101102.53
2022-07-31T11:23:56.471Z,101093.69
2022-07-31T11:26:33.467Z,101090.09
2022-07-31T11:30:01.736Z,101087.72
2022-07-31T11:32:00.978Z,101087.88
2022-07-31T11:34:28.002Z,101082.28
2022-07-31T11:36:54.837Z,101078.16
2022-07-31T11:39:28.330Z,101081.00
2022-07-31T11:42:04.273Z,101077.88
2022-07-31T11:44:31.471Z,101075.28
2022-07-31T11:46:58.354Z,101076.09
2022-07-31T11:49:47.708Z,101074.47
2022-07-31T11:52:31.321Z,101072.38
2022-07-31T11:55:09.147Z,101069.47
2022-07-31T11:57:52.013Z,101062.22
2022-07-31T12:00:24.784Z,101062.44
2022-07-31T12:02:54.530Z,101055.41
2022-07-31T12:05:37.814Z,101058.19
2022-07-31T12:08:07.661Z,101055.50
2022-07-31T12:10:35.659Z,101053.81
2022-07-31T12:13:03.978Z,101050.91
2022-07-31T12:15:30.661Z,101046.97
2022-07-31T12:18:05.480Z,101052.34
2022-07-31T12:20:37.000Z,101048.44
2022-07-31T12:23:06.117Z,101042.03
2022-07-31T12:25:41.089Z,101044.59
2022-07-31T12:28:08.360Z,101026.13
2022-07-31T12:30:35.110Z,101038.03
2022-07-31T12:33:09.125Z,101029.00
2022-07-31T12:35:56.112Z,101025.72
2022-07-31T12:38:45.392Z,101024.31
2022-07-31T12:41:12.805Z,101019.78
2022-07-31T12:43:50.773Z,101022.31
2022-07-31T12:46:19.362Z,101021.16
2022-07-31T12:48:46.541Z,101018.44
2022-07-31T12:51:13.416Z,101008.28
2022-07-31T12:53:42.760Z,101011.47
2022-07-31T12:56:12.522Z,101010.97
2022-07-31T12:58:39.249Z,101004.09
2022-07-31T13:01:05.907Z,101009.75
2022-07-31T13:03:39.031Z,101007.09
2022-07-31T13:06:13.541Z,100998.66
2022-07-31T13:08:40.835Z,100991.81
2022-07-31T13:11:07.561Z,100991.03
2022-07-31T13:13:37.027Z,100989.31
2022-07-31T13:16:05.196Z,100977.53
2022-07-31T13:18:32.846Z,100986.72
2022-07-31T13:21:00.706Z,100988.53
2022-07-31T13:23:27.982Z,100979.06
2022-07-31T13:25:55.179Z,100984.50
2022-07-31T13:28:21.834Z,100983.50
2022-07-31T13:30:52.072Z,100975.53
2022-07-31T13:33:21.747Z,100973.72
2022-07-31T13:35:48.503Z,100969.84
2022-07-31T13:38:15.249Z,100972.06
2022-07-31T13:41:00.420Z,100967.31
2022-07-31T13:43:27.368Z,100956.72
2022-07-31T13:45:54.248Z,100957.91
2022-07-31T13:48:20.935Z,100951.75
2022-07-31T13:50:47.728Z,100950.47
2022-07-31T13:53:14.344Z,100951.94
2022-07-31T13:55:40.929Z,100941.91
2022-07-31T13:58:09.194Z,100940.41
2022-07-31T14:00:36.702Z,100938.56
2022-07-31T14:03:03.579Z,100942.69
2022-07-31T14:05:30.251Z,100941.19
2022-07-31T14:08:30.533Z,100943.19
2022-07-31T14:10:52.765Z,100941.44
2022-07-31T14:13:20.146Z,100944.56
2022-07-31T14:15:47.752Z,100939.03
2022-07-31T14:18:15.617Z,100938.31
2022-07-31T14:20:42.635Z,100936.09
2022-07-31T14:23:09.456Z,100937.34
2022-07-31T14:25:39.784Z,100941.72
2022-07-31T14:28:08.481Z,100929.81
2022-07-31T14:30:36.609Z,100933.22
2022-07-31T14:33:04.856Z,100932.88
2022-07-31T14:35:33.576Z,100931.88
2022-07-31T14:38:04.149Z,100929.38
2022-07-31T14:40:31.495Z,100921.94
2022-07-31T14:42:58.615Z,100921.63
2022-07-31T14:45:25.291Z,100919.44
2022-07-31T14:47:51.985Z,100914.53
2022-07-31T14:50:20.178Z,100918.81
2022-07-31T14:52:48.391Z,100916.34
2022-07-31T14:55:15.107Z,100920.19
2022-07-31T14:57:42.049Z,100922.25
2022-07-31T15:00:13.122Z,100914.38
2022-07-31T15:02:42.137Z,100911.09
2022-07-31T15:06:48.633Z,100909.75
2022-07-31T15:07:56.312Z,100906.69
2022-07-31T15:10:24.220Z,100905.91
2022-07-31T15:12:52.505Z,100899.88
2022-07-31T15:15:19.364Z,100911.19
2022-07-31T15:17:45.993Z,100900.72
2022-07-31T15:20:13.106Z,100895.38
2022-07-31T15:22:39.801Z,100889.56
2022-07-31T15:25:07.215Z,100881.06
2022-07-31T15:27:33.840Z,100884.59
2022-07-31T15:30:06.921Z,100893.31
2022-07-31T15:32:38.759Z,100893.84
2022-07-31T15:35:07.058Z,100883.72
2022-07-31T15:37:35.596Z,100880.38
2022-07-31T15:40:07.248Z,100882.84
2022-07-31T15:42:40.732Z,100880.91
2022-07-31T15:45:12.885Z,100879.25
2022-07-31T15:47:40.011Z,100874.31
2022-07-31T15:50:08.623Z,100869.53
2022-07-31T15:52:35.314Z,100870.09
2022-07-31T15:55:02.789Z,100868.59
2022-07-31T15:57:29.428Z,100868.16
2022-07-31T15:59:56.385Z,100863.38
2022-07-31T16:02:25.025Z,100861.19
2022-07-31T16:04:55.566Z,100863.22
2022-07-31T16:08:29.417Z,100858.38
2022-07-31T16:10:15.253Z,100852.97
2022-07-31T16:12:43.289Z,100854.38
2022-07-31T16:15:12.687Z,100849.59
2022-07-31T16:17:40.010Z,100843.06
2022-07-31T16:20:11.944Z,100849.03
2022-07-31T16:22:40.742Z,100842.38
2022-07-31T16:25:08.741Z,100835.19
2022-07-31T16:27:36.121Z,100842.00
2022-07-31T16:30:04.603Z,100820.94
2022-07-31T16:32:31.764Z,100825.03
2022-07-31T16:35:01.291Z,100828.66
2022-07-31T16:37:49.906Z,100822.88
2022-07-31T16:40:28.175Z,100823.28
2022-07-31T16:42:56.311Z,100829.84
2022-07-31T16:45:24.282Z,100834.72
2022-07-31T16:47:52.355Z,100831.38
2022-07-31T16:50:19.317Z,100829.50
2022-07-31T16:55:12.798Z,100831.56
2022-07-31T16:57:40.138Z,100829.03
2022-07-31T17:02:59.686Z,100839.72
2022-07-31T17:05:26.799Z,100829.69
2022-07-31T17:08:12.587Z,100834.94
2022-07-31T17:10:41.949Z,100833.72
2022-07-31T17:13:08.552Z,100832.25
2022-07-31T17:15:35.520Z,100837.66
2022-07-31T17:18:02.258Z,100827.44
2022-07-31T17:20:29.064Z,100837.97
2022-07-31T17:22:56.732Z,100838.97
2022-07-31T17:25:23.463Z,100835.56
2022-07-31T17:27:51.907Z,100835.16
2022-07-31T17:30:18.684Z,100840.19
2022-07-31T17:32:46.117Z,100847.03
2022-07-31T17:35:13.651Z,100843.47
2022-07-31T17:37:40.551Z,100845.63
2022-07-31T17:40:27.293Z,100849.31
2022-07-31T17:42:54.760Z,100841.00
2022-07-31T17:45:21.692Z,100848.13
2022-07-31T17:48:02.543Z,100846.78
2022-07-31T17:50:30.649Z,100846.78
2022-07-31T17:52:57.372Z,100856.03
2022-07-31T17:55:24.155Z,100855.91
2022-07-31T17:57:50.867Z,100849.97
2022-07-31T18:00:19.455Z,100846.69
2022-07-31T18:02:46.148Z,100854.97
2022-07-31T18:05:12.963Z,100859.47
2022-07-31T18:07:39.880Z,100863.13
2022-07-31T18:10:09.344Z,100853.78
2022-07-31T18:12:56.746Z,100858.38
2022-07-31T18:15:34.746Z,100869.00
2022-07-31T18:18:03.000Z,100862.84
2022-07-31T18:20:31.946Z,100864.97
2022-07-31T18:22:58.588Z,100877.16
2022-07-31T18:25:27.174Z,100867.34
2022-07-31T18:27:57.135Z,100868.91
2022-07-31T18:30:24.136Z,100873.88
2022-07-31T18:32:57.058Z,100875.63
2022-07-31T18:35:23.700Z,100870.25
2022-07-31T18:37:50.295Z,100872.97
2022-07-31T18:40:17.176Z,100877.69
2022-07-31T18:42:43.823Z,100879.13
2022-07-31T18:45:10.718Z,100882.88
2022-07-31T18:47:37.597Z,100877.88
2022-07-31T18:50:58.343Z,100883.63
2022-07-31T18:52:52.047Z,100882.00
2022-07-31T18:55:18.812Z,100882.78
2022-07-31T18:57:45.586Z,100897.91
2022-07-31T19:00:18.206Z,100892.50
2022-07-31T19:02:44.916Z,100901.50
2022-07-31T19:05:21.291Z,100907.94
2022-07-31T19:07:48.873Z,100904.31
2022-07-31T19:10:31.043Z,100902.41
2022-07-31T19:12:58.832Z,100907.25
2022-07-31T19:15:25.513Z,100912.25
2022-07-31T19:17:52.162Z,100911.13
2022-07-31T19:20:41.335Z,100912.09
2022-07-31T19:23:12.574Z,100919.22
2022-07-31T19:26:02.699Z,100933.50
2022-07-31T19:28:27.856Z,100936.44
2022-07-31T19:30:55.162Z,100939.28
2022-07-31T19:33:22.308Z,100943.47
2022-07-31T19:35:55.132Z,100938.00
2022-07-31T19:38:22.437Z,100943.88
2022-07-31T19:40:49.139Z,100948.34
2022-07-31T19:43:16.036Z,100949.53
2022-07-31T19:46:00.426Z,100949.84
2022-07-31T19:48:34.048Z,100949.78
2022-07-31T19:51:00.707Z,100958.16
2022-07-31T19:53:27.330Z,100954.41
2022-07-31T19:55:53.924Z,100955.25
2022-07-31T19:58:21.280Z,100957.66
2022-07-31T20:00:48.643Z,100954.72
2022-07-31T20:03:15.449Z,100957.03
2022-07-31T20:05:42.279Z,100960.72
2022-07-31T20:08:10.989Z,100960.72
2022-07-31T20:10:37.653Z,100961.84
2022-07-31T20:13:04.479Z,100962.22
2022-07-31T20:15:50.933Z,100963.88
2022-07-31T20:18:26.891Z,100962.88
2022-07-31T20:20:59.358Z,100970.28
2022-07-31T20:23:27.051Z,100965.78
2022-07-31T20:25:53.965Z,100973.31
2022-07-31T20:28:20.944Z,100966.13
2022-07-31T20:30:47.573Z,100971.44
2022-07-31T20:33:14.389Z,100968.28
2022-07-31T20:35:49.213Z,100972.22
2022-07-31T20:38:21.590Z,100980.13
2022-07-31T20:40:54.318Z,100975.84
2022-07-31T20:43:27.943Z,100964.00
2022-07-31T20:45:58.829Z,100973.00
2022-07-31T20:48:34.867Z,100961.63
2022-07-31T20:51:03.667Z,100970.69
2022-07-31T20:53:31.464Z,100974.63
2022-07-31T20:55:59.080Z,100975.06
2022-07-31T20:58:26.421Z,100971.53
2022-07-31T21:00:53.569Z,100972.94
2022-07-31T21:03:20.822Z,100975.25
2022-07-31T21:05:47.979Z,100972.31
2022-07-31T21:08:15.148Z,100973.22
2022-07-31T21:10:42.083Z,100966.50
2022-07-31T21:13:09.520Z,100975.47
2022-07-31T21:15:44.066Z,100974.53
2022-07-31T21:18:16.269Z,100976.53
2022-07-31T21:20:52.375Z,100969.88
2022-07-31T21:23:24.634Z,100973.47
2022-07-31T21:25:53.598Z,100977.56
2022-07-31T21:28:21.471Z,100969.03
2022-07-31T21:30:48.816Z,100966.88
2022-07-31T21:33:15.829Z,100961.38
2022-07-31T21:35:42.910Z,100967.03
2022-07-31T21:38:15.233Z,100973.19
2022-07-31T21:40:44.109Z,100971.91
2022-07-31T21:43:11.811Z,100973.19
2022-07-31T21:45:51.375Z,100982.13
2022-07-31T21:48:25.143Z,100977.31
2022-07-31T21:50:53.146Z,100979.94
2022-07-31T21:53:19.795Z,100984.84
2022-07-31T21:55:46.538Z,100983.72
2022-07-31T21:58:13.417Z,100982.34
2022-07-31T22:00:40.186Z,100986.34
2022-07-31T22:03:06.919Z,100986.81
2022-07-31T22:05:52.656Z,100985.25
2022-07-31T22:08:20.830Z,100983.28
2022-07-31T22:10:50.783Z,100982.44
2022-07-31T22:13:18.564Z,100989.53
2022-07-31T22:15:58.227Z,100990.13
2022-07-31T22:18:28.106Z,100970.97
2022-07-31T22:20:55.023Z,100983.63
2022-07-31T22:23:22.992Z,100986.84
2022-07-31T22:25:49.941Z,100995.16
2022-07-31T22:28:21.126Z,100984.19
2022-07-31T22:30:48.420Z,100988.31
2022-07-31T22:33:15.552Z,100995.66
2022-07-31T22:35:42.631Z,100996.03
2022-07-31T22:38:11.136Z,101007.28
2022-07-31T22:40:38.052Z,101002.47
2022-07-31T22:44:09.390Z,100998.06
2022-07-31T22:45:53.514Z,101008.72
2022-07-31T22:48:21.864Z,101009.88
2022-07-31T22:50:50.222Z,101003.19
2022-07-31T22:53:17.579Z,101009.84
2022-07-31T22:55:44.521Z,101006.00
2022-07-31T22:58:14.964Z,101006.09
2022-07-31T23:00:42.359Z,101008.16
2022-07-31T23:03:09.310Z,101011.19
2022-07-31T23:06:02.912Z,101008.31
2022-07-31T23:08:22.648Z,101014.00
2022-07-31T23:10:49.414Z,101018.72
2022-07-31T23:13:15.996Z,101008.47
2022-07-31T23:15:43.738Z,101013.06
2022-07-31T23:18:10.419Z,101013.06
2022-07-31T23:20:37.117Z,101017.31
2022-07-31T23:23:03.815Z,101015.78
2022-07-31T23:25:30.514Z,101010.50
2022-07-31T23:27:57.200Z,101021.50
2022-07-31T23:30:27.439Z,101015.09
2022-07-31T23:32:55.451Z,101021.31
2022-07-31T23:35:22.127Z,101014.75
2022-07-31T23:37:48.870Z,101017.91
2022-07-31T23:40:15.673Z,101017.63
2022-07-31T23:42:42.304Z,101012.59
2022-07-31T23:45:12.875Z,101007.06
2022-07-31T23:47:45.695Z,101013.59
2022-07-31T23:50:15.319Z,101013.06
2022-07-31T23:52:45.138Z,101004.19
2022-07-31T23:55:12.134Z,101004.34
2022-07-31T23:57:40.039Z,100996.66
